createdAt,value
2022-12-18T00:01:18.815Z,100.00
2022-12-18T00:03:46.150Z,100.00
2022-12-18T00:06:14.719Z,100.00
2022-12-18T00:08:42.166Z,100.00
2022-12-18T00:11:11.905Z,100.00
2022-12-18T00:13:38.708Z,100.00
2022-12-18T00:16:07.860Z,100.00
2022-12-18T00:18:37.284Z,100.00
2022-12-18T00:21:07.104Z,100.00
2022-12-18T00:23:35.748Z,100.00
2022-12-18T00:26:04.175Z,100.00
2022-12-18T00:28:30.775Z,100.00
2022-12-18T00:31:05.072Z,100.00
2022-12-18T00:33:31.624Z,100.00
2022-12-18T00:36:10.259Z,100.00
2022-12-18T00:38:37.074Z,100.00
2022-12-18T00:41:03.869Z,100.00
2022-12-18T00:43:30.522Z,100.00
2022-12-18T00:45:57.068Z,100.00
2022-12-18T00:48:23.613Z,100.00
2022-12-18T00:50:51.205Z,100.00
2022-12-18T00:53:17.880Z,100.00
2022-12-18T00:55:44.940Z,100.00
2022-12-18T00:58:13.504Z,100.00
2022-12-18T01:00:40.023Z,100.00
2022-12-18T01:03:07.008Z,100.00
2022-12-18T01:05:34.417Z,100.00
2022-12-18T01:08:01.039Z,100.00
2022-12-18T01:10:27.621Z,100.00
2022-12-18T01:12:54.128Z,100.00
2022-12-18T01:15:21.388Z,100.00
2022-12-18T01:17:47.940Z,100.00
2022-12-18T01:20:15.041Z,100.00
2022-12-18T01:22:41.897Z,100.00
2022-12-18T01:25:09.043Z,100.00
2022-12-18T01:27:35.611Z,100.00
2022-12-18T01:30:02.267Z,100.00
2022-12-18T01:32:31.558Z,100.00
2022-12-18T01:34:58.271Z,100.00
2022-12-18T01:37:25.385Z,100.00
2022-12-18T01:39:55.385Z,100.00
2022-12-18T01:42:22.949Z,100.00
2022-12-18T01:45:24.400Z,100.00
2022-12-18T01:47:53.344Z,100.00
2022-12-18T01:50:37.058Z,100.00
2022-12-18T01:53:20.079Z,100.00
2022-12-18T01:55:58.607Z,100.00
2022-12-18T01:58:37.302Z,100.00
2022-12-18T02:01:04.360Z,100.00
2022-12-18T02:03:30.954Z,100.00
2022-12-18T02:06:08.415Z,100.00
2022-12-18T02:08:44.969Z,99.79
2022-12-18T02:11:37.002Z,100.00
2022-12-18T02:14:21.687Z,100.00
2022-12-18T02:17:00.467Z,100.00
2022-12-18T02:19:58.791Z,100.00
2022-12-18T02:22:30.716Z,100.00
2022-12-18T02:25:18.699Z,100.00
2022-12-18T02:27:48.004Z,98.74
2022-12-18T02:30:16.160Z,100.00
2022-12-18T02:32:47.078Z,100.00
2022-12-18T02:35:18.045Z,99.63
2022-12-18T02:37:46.975Z,98.17
2022-12-18T02:40:15.797Z,100.00
2022-12-18T02:42:42.355Z,100.00
2022-12-18T02:45:09.291Z,100.00
2022-12-18T02:47:41.007Z,100.00
2022-12-18T02:50:38.935Z,100.00
2022-12-18T02:53:14.769Z,100.00
2022-12-18T02:55:55.672Z,100.00
2022-12-18T02:58:29.356Z,100.00
2022-12-18T03:01:16.064Z,100.00
2022-12-18T03:03:53.781Z,99.43
2022-12-18T03:06:43.259Z,100.00
2022-12-18T03:09:15.806Z,100.00
2022-12-18T03:12:05.586Z,100.00
2022-12-18T03:14:35.085Z,99.14
2022-12-18T03:17:04.139Z,99.23
2022-12-18T03:19:33.851Z,98.55
2022-12-18T03:22:04.941Z,99.42
2022-12-18T03:24:32.657Z,100.00
2022-12-18T03:27:03.858Z,100.00
2022-12-18T03:29:38.172Z,100.00
2022-12-18T03:32:16.144Z,99.48
2022-12-18T03:34:46.763Z,99.99
2022-12-18T03:37:13.340Z,99.69
2022-12-18T03:39:39.871Z,98.73
2022-12-18T03:42:16.040Z,98.23
2022-12-18T03:45:14.859Z,97.39
2022-12-18T03:47:48.535Z,97.33
2022-12-18T03:50:26.713Z,98.63
2022-12-18T03:53:01.158Z,98.98
2022-12-18T03:55:31.392Z,99.49
2022-12-18T03:57:59.658Z,100.00
2022-12-18T04:00:26.784Z,100.00
2022-12-18T04:02:56.558Z,100.00
2022-12-18T04:05:25.282Z,100.00
2022-12-18T04:07:54.913Z,99.20
2022-12-18T04:10:21.451Z,100.00
2022-12-18T04:12:48.046Z,99.91
2022-12-18T04:15:14.913Z,100.00
2022-12-18T04:17:50.854Z,99.70
2022-12-18T04:20:17.995Z,99.83
2022-12-18T04:22:44.611Z,98.83
2022-12-18T04:25:12.412Z,98.69
2022-12-18T04:27:38.965Z,98.95
2022-12-18T04:30:06.204Z,98.89
2022-12-18T04:32:34.682Z,100.00
2022-12-18T04:35:01.168Z,99.85
2022-12-18T04:37:27.720Z,100.00
2022-12-18T04:39:54.242Z,100.00
2022-12-18T04:42:20.734Z,100.00
2022-12-18T04:44:47.223Z,100.00
2022-12-18T04:47:13.726Z,99.90
2022-12-18T04:49:40.237Z,98.87
2022-12-18T04:52:08.000Z,97.67
2022-12-18T04:54:34.553Z,97.87
2022-12-18T04:57:01.328Z,99.51
2022-12-18T04:59:27.817Z,98.33
2022-12-18T05:01:54.406Z,99.19
2022-12-18T05:04:20.923Z,99.82
2022-12-18T05:06:47.375Z,100.00
2022-12-18T05:09:14.742Z,100.00
2022-12-18T05:11:41.370Z,99.19
2022-12-18T05:14:07.813Z,97.58
2022-12-18T05:16:34.897Z,95.49
2022-12-18T05:19:01.397Z,95.15
2022-12-18T05:21:27.900Z,97.29
2022-12-18T05:23:54.455Z,97.39
2022-12-18T05:26:21.001Z,97.84
2022-12-18T05:28:47.693Z,97.37
2022-12-18T05:31:14.830Z,97.75
2022-12-18T05:33:41.751Z,96.79
2022-12-18T05:36:10.309Z,97.31
2022-12-18T05:38:39.210Z,98.45
2022-12-18T05:41:06.562Z,98.71
2022-12-18T05:43:36.129Z,99.08
2022-12-18T05:46:07.586Z,98.64
2022-12-18T05:48:34.636Z,97.59
2022-12-18T05:51:09.363Z,96.73
2022-12-18T05:53:37.774Z,97.04
2022-12-18T05:56:06.811Z,97.54
2022-12-18T05:58:33.730Z,97.69
2022-12-18T06:01:11.306Z,97.19
2022-12-18T06:03:37.989Z,98.11
2022-12-18T06:06:05.137Z,98.73
2022-12-18T06:08:51.288Z,98.20
2022-12-18T06:11:21.146Z,97.48
2022-12-18T06:13:53.564Z,98.61
2022-12-18T06:16:24.320Z,97.84
2022-12-18T06:18:50.945Z,97.39
2022-12-18T06:21:17.476Z,97.99
2022-12-18T06:23:44.636Z,98.10
2022-12-18T06:26:13.147Z,98.93
2022-12-18T06:28:39.953Z,99.30
2022-12-18T06:31:07.758Z,96.96
2022-12-18T06:33:35.329Z,96.74
2022-12-18T06:36:08.463Z,97.26
2022-12-18T06:38:35.740Z,97.84
2022-12-18T06:41:06.774Z,97.26
2022-12-18T06:43:33.374Z,97.69
2022-12-18T06:46:01.225Z,98.34
2022-12-18T06:48:28.347Z,98.29
2022-12-18T06:50:54.818Z,98.36
2022-12-18T06:53:21.340Z,98.77
2022-12-18T06:55:47.895Z,98.12
2022-12-18T06:58:14.704Z,96.81
2022-12-18T07:00:41.553Z,96.67
2022-12-18T07:03:08.298Z,97.40
2022-12-18T07:05:35.081Z,97.58
2022-12-18T07:08:01.655Z,97.31
2022-12-18T07:10:28.259Z,96.74
2022-12-18T07:12:54.752Z,96.89
2022-12-18T07:15:21.329Z,95.64
2022-12-18T07:17:47.936Z,95.95
2022-12-18T07:20:14.460Z,96.50
2022-12-18T07:22:41.194Z,97.16
2022-12-18T07:25:08.480Z,97.63
2022-12-18T07:27:35.024Z,96.43
2022-12-18T07:30:01.568Z,96.46
2022-12-18T07:32:28.356Z,95.12
2022-12-18T07:34:54.847Z,94.51
2022-12-18T07:37:21.341Z,94.81
2022-12-18T07:39:47.812Z,95.14
2022-12-18T07:42:31.837Z,96.50
2022-12-18T07:45:02.228Z,95.51
2022-12-18T07:47:29.954Z,94.16
2022-12-18T07:49:57.437Z,93.76
2022-12-18T07:52:26.247Z,93.27
2022-12-18T07:54:52.975Z,92.25
2022-12-18T07:57:41.788Z,90.54
2022-12-18T08:00:06.781Z,89.53
2022-12-18T08:02:33.403Z,90.64
2022-12-18T08:05:01.210Z,93.28
2022-12-18T08:07:27.704Z,94.06
2022-12-18T08:09:54.207Z,94.17
2022-12-18T08:12:20.799Z,93.69
2022-12-18T08:14:47.462Z,93.76
2022-12-18T08:17:13.974Z,93.04
2022-12-18T08:19:40.546Z,93.61
2022-12-18T08:22:07.044Z,93.48
2022-12-18T08:24:33.559Z,92.92
2022-12-18T08:27:28.414Z,93.27
2022-12-18T08:29:46.621Z,91.25
2022-12-18T08:32:13.322Z,92.07
2022-12-18T08:34:39.899Z,94.48
2022-12-18T08:37:06.613Z,94.94
2022-12-18T08:39:33.182Z,93.49
2022-12-18T08:42:18.115Z,94.64
2022-12-18T08:44:44.599Z,96.37
2022-12-18T08:47:11.145Z,95.87
2022-12-18T08:49:37.726Z,93.46
2022-12-18T08:52:04.498Z,93.99
2022-12-18T08:54:31.112Z,94.05
2022-12-18T08:56:57.866Z,94.34
2022-12-18T08:59:24.592Z,93.69
2022-12-18T09:01:51.442Z,92.51
2022-12-18T09:04:18.476Z,92.99
2022-12-18T09:06:45.032Z,93.78
2022-12-18T09:09:12.196Z,92.28
2022-12-18T09:11:38.863Z,92.28
2022-12-18T09:14:05.642Z,93.18
2022-12-18T09:16:33.480Z,95.13
2022-12-18T09:19:01.218Z,94.66
2022-12-18T09:21:35.126Z,92.99
2022-12-18T09:24:05.174Z,91.38
2022-12-18T09:26:35.454Z,92.35
2022-12-18T09:29:03.906Z,93.61
2022-12-18T09:31:30.449Z,91.20
2022-12-18T09:33:57.788Z,91.54
2022-12-18T09:36:24.322Z,92.02
2022-12-18T09:38:51.247Z,91.24
2022-12-18T09:41:36.708Z,91.65
2022-12-18T09:44:21.051Z,90.94
2022-12-18T09:47:01.951Z,91.65
2022-12-18T09:49:32.022Z,92.11
2022-12-18T09:52:10.230Z,92.65
2022-12-18T09:54:41.685Z,92.82
2022-12-18T09:57:14.494Z,92.43
2022-12-18T09:59:43.475Z,91.53
2022-12-18T10:02:25.216Z,91.40
2022-12-18T10:05:16.761Z,90.68
2022-12-18T10:08:08.247Z,89.20
2022-12-18T10:10:49.706Z,90.36
2022-12-18T10:13:27.315Z,90.46
2022-12-18T10:16:17.563Z,89.63
2022-12-18T10:19:09.226Z,89.08
2022-12-18T10:22:00.145Z,87.21
2022-12-18T10:24:40.227Z,88.42
2022-12-18T10:27:18.991Z,85.75
2022-12-18T10:29:47.126Z,83.62
2022-12-18T10:32:19.957Z,85.01
2022-12-18T10:34:55.346Z,83.84
2022-12-18T10:37:28.754Z,82.35
2022-12-18T10:40:21.794Z,81.96
2022-12-18T10:43:03.792Z,82.91
2022-12-18T10:45:40.866Z,83.74
2022-12-18T10:48:20.477Z,81.78
2022-12-18T10:53:38.231Z,83.57
2022-12-18T10:56:07.362Z,84.69
2022-12-18T10:58:39.396Z,82.23
2022-12-18T11:01:25.588Z,82.03
2022-12-18T11:04:02.952Z,82.21
2022-12-18T11:06:33.399Z,82.02
2022-12-18T11:09:29.107Z,82.87
2022-12-18T11:11:58.112Z,82.33
2022-12-18T11:14:27.323Z,80.94
2022-12-18T11:17:24.923Z,81.41
2022-12-18T11:19:42.893Z,82.07
2022-12-18T11:22:27.588Z,81.74
2022-12-18T11:25:34.583Z,79.22
2022-12-18T11:28:06.611Z,78.95
2022-12-18T11:30:38.078Z,78.44
2022-12-18T11:33:13.330Z,75.84
2022-12-18T11:36:36.349Z,76.42
2022-12-18T11:39:13.286Z,75.54
2022-12-18T11:42:20.257Z,74.14
2022-12-18T11:45:19.029Z,73.42
2022-12-18T11:48:16.237Z,73.38
2022-12-18T11:50:59.913Z,72.23
2022-12-18T11:53:28.336Z,72.79
2022-12-18T11:56:04.882Z,72.77
2022-12-18T11:58:47.171Z,73.04
2022-12-18T12:01:23.034Z,71.58
2022-12-18T12:04:10.777Z,74.15
2022-12-18T12:07:04.249Z,74.09
2022-12-18T12:09:53.727Z,73.13
2022-12-18T12:13:00.546Z,72.36
2022-12-18T12:16:02.768Z,72.43
2022-12-18T12:18:47.401Z,72.82
2022-12-18T12:21:19.525Z,72.59
2022-12-18T12:24:37.665Z,70.98
2022-12-18T12:27:26.706Z,70.84
2022-12-18T12:30:06.317Z,70.70
2022-12-18T12:32:47.863Z,70.89
2022-12-18T12:35:30.646Z,72.27
2022-12-18T12:38:10.331Z,73.01
2022-12-18T12:40:52.396Z,73.86
2022-12-18T12:43:33.405Z,73.25
2022-12-18T12:46:11.992Z,73.38
2022-12-18T12:48:59.810Z,73.06
2022-12-18T12:51:30.945Z,72.86
2022-12-18T12:54:13.855Z,73.88
2022-12-18T12:57:17.829Z,74.52
2022-12-18T13:00:04.331Z,71.40
2022-12-18T13:03:05.688Z,72.94
2022-12-18T13:06:01.297Z,71.04
2022-12-18T13:08:40.862Z,72.12
2022-12-18T13:11:59.759Z,73.09
2022-12-18T13:14:47.350Z,72.37
2022-12-18T13:17:37.490Z,73.18
2022-12-18T13:20:09.698Z,73.61
2022-12-18T13:22:45.274Z,71.87
2022-12-18T13:25:35.758Z,71.54
2022-12-18T13:28:08.643Z,72.51
2022-12-18T13:30:36.234Z,72.44
2022-12-18T13:33:15.270Z,71.44
2022-12-18T13:36:03.189Z,71.78
2022-12-18T13:38:35.290Z,70.61
2022-12-18T13:44:35.970Z,70.46
2022-12-18T13:47:50.457Z,70.03
2022-12-18T13:53:34.077Z,70.95
2022-12-18T13:56:08.075Z,71.31
2022-12-18T13:58:35.355Z,72.19
2022-12-18T14:01:04.172Z,71.35
2022-12-18T14:03:51.481Z,72.68
2022-12-18T14:06:49.896Z,72.00
2022-12-18T14:10:41.283Z,71.65
2022-12-18T14:15:43.913Z,72.67
2022-12-18T14:18:52.577Z,71.83
2022-12-18T14:24:32.489Z,71.63
2022-12-18T14:27:32.375Z,73.58
2022-12-18T14:30:26.690Z,74.57
2022-12-18T14:49:39.975Z,77.10
2022-12-18T14:53:24.620Z,77.07
2022-12-18T14:59:42.227Z,79.12
2022-12-18T15:02:49.873Z,80.91
2022-12-18T15:15:22.131Z,83.75
2022-12-18T15:18:03.371Z,81.94
2022-12-18T15:23:45.423Z,83.48
2022-12-18T15:35:23.337Z,84.73
2022-12-18T15:38:00.003Z,85.54
2022-12-18T15:41:29.574Z,86.91
2022-12-18T15:43:35.026Z,88.22
2022-12-18T15:46:29.474Z,88.24
2022-12-18T15:52:13.085Z,88.64
2022-12-18T15:55:07.214Z,89.83
2022-12-18T15:57:59.316Z,90.47
2022-12-18T16:00:28.596Z,91.88
2022-12-18T16:03:28.204Z,92.25
2022-12-18T16:06:07.812Z,92.44
2022-12-18T16:09:12.927Z,92.42
2022-12-18T16:11:48.453Z,93.09
2022-12-18T16:14:35.700Z,93.08
2022-12-18T16:20:02.227Z,93.60
2022-12-18T16:22:31.857Z,94.03
2022-12-18T16:25:03.444Z,93.76
2022-12-18T16:27:30.080Z,94.33
2022-12-18T16:29:57.963Z,94.32
2022-12-18T16:32:25.643Z,94.21
2022-12-18T16:34:52.613Z,94.45
2022-12-18T16:37:31.240Z,94.82
2022-12-18T16:40:00.879Z,92.89
2022-12-18T16:42:39.991Z,93.80
2022-12-18T16:45:27.651Z,92.76
2022-12-18T16:47:54.352Z,94.58
2022-12-18T16:50:25.584Z,94.21
2022-12-18T16:52:52.587Z,94.18
2022-12-18T16:55:20.916Z,94.08
2022-12-18T16:57:51.135Z,94.49
2022-12-18T17:00:18.305Z,94.12
2022-12-18T17:02:45.025Z,94.51
2022-12-18T17:05:14.400Z,92.75
2022-12-18T17:07:41.119Z,91.52
2022-12-18T17:10:07.961Z,91.36
2022-12-18T17:12:37.193Z,92.64
2022-12-18T17:15:10.377Z,93.64
2022-12-18T17:17:37.019Z,93.79
2022-12-18T17:20:03.823Z,93.86
2022-12-18T17:22:30.366Z,94.07
2022-12-18T17:24:56.941Z,93.88
2022-12-18T17:27:23.527Z,94.07
2022-12-18T17:29:50.166Z,94.77
2022-12-18T17:32:20.217Z,94.51
2022-12-18T17:34:47.204Z,94.37
2022-12-18T17:37:14.527Z,93.97
2022-12-18T17:39:42.268Z,94.13
2022-12-18T17:42:10.652Z,94.58
2022-12-18T17:44:42.542Z,94.41
2022-12-18T17:47:12.081Z,95.20
2022-12-18T17:49:38.900Z,95.11
2022-12-18T17:52:05.472Z,95.37
2022-12-18T17:54:33.083Z,94.40
2022-12-18T17:56:59.747Z,94.50
2022-12-18T17:59:26.388Z,93.66
2022-12-18T18:01:53.133Z,94.01
2022-12-18T18:04:20.480Z,94.95
2022-12-18T18:06:47.200Z,94.61
2022-12-18T18:09:16.067Z,94.52
2022-12-18T18:12:02.875Z,95.12
2022-12-18T18:14:29.696Z,95.24
2022-12-18T18:16:56.191Z,95.79
2022-12-18T18:19:25.288Z,95.82
2022-12-18T18:21:53.987Z,95.42
2022-12-18T18:24:26.051Z,95.00
2022-12-18T18:26:59.418Z,95.03
2022-12-18T18:29:27.067Z,95.78
2022-12-18T18:31:54.500Z,95.01
2022-12-18T18:34:24.374Z,95.25
2022-12-18T18:36:51.420Z,95.97
2022-12-18T18:39:18.755Z,95.17
2022-12-18T18:41:47.877Z,94.84
2022-12-18T18:44:15.918Z,95.55
2022-12-18T18:46:42.369Z,95.08
2022-12-18T18:49:09.642Z,95.21
2022-12-18T18:51:36.071Z,94.90
2022-12-18T18:54:02.632Z,94.23
2022-12-18T18:59:16.375Z,94.35
2022-12-18T19:01:43.419Z,94.14
2022-12-18T19:04:10.228Z,94.39
2022-12-18T19:06:39.069Z,95.09
2022-12-18T19:09:06.633Z,94.46
2022-12-18T19:11:51.844Z,93.15
2022-12-18T19:14:25.172Z,93.65
2022-12-18T19:16:55.092Z,91.00
2022-12-18T19:19:22.288Z,92.55
2022-12-18T19:21:49.949Z,93.72
2022-12-18T19:24:16.365Z,93.25
2022-12-18T19:26:42.915Z,94.14
2022-12-18T19:29:12.098Z,94.03
2022-12-18T19:31:38.842Z,94.00
2022-12-18T19:34:07.050Z,93.48
2022-12-18T19:36:35.741Z,93.23
2022-12-18T19:39:07.259Z,94.55
2022-12-18T19:41:33.897Z,93.74
2022-12-18T19:44:07.635Z,92.96
2022-12-18T19:46:35.836Z,94.22
2022-12-18T19:49:02.914Z,94.13
2022-12-18T19:51:34.993Z,93.62
2022-12-18T19:54:02.247Z,92.78
2022-12-18T19:56:31.989Z,92.44
2022-12-18T19:58:58.813Z,92.17
2022-12-18T20:01:27.105Z,91.68
2022-12-18T20:03:55.522Z,89.89
2022-12-18T20:06:28.396Z,90.55
2022-12-18T20:09:07.615Z,92.26
2022-12-18T20:11:41.469Z,92.12
2022-12-18T20:14:23.943Z,92.33
2022-12-18T20:20:46.050Z,93.75
2022-12-18T20:21:14.413Z,93.11
2022-12-18T20:24:18.369Z,93.69
2022-12-18T20:31:44.528Z,92.00
2022-12-18T20:34:38.375Z,91.55
2022-12-18T21:07:32.771Z,93.97
2022-12-18T21:10:08.264Z,95.21
2022-12-18T21:26:31.736Z,90.36
2022-12-18T21:39:19.935Z,93.14
2022-12-18T21:42:07.746Z,93.28
2022-12-18T21:57:04.139Z,88.92
2022-12-18T22:08:04.015Z,92.56
2022-12-18T22:14:07.190Z,91.88
2022-12-18T22:18:00.080Z,92.56
2022-12-18T22:23:12.578Z,92.63
2022-12-18T22:29:12.034Z,93.86
2022-12-18T22:32:01.044Z,95.77
2022-12-18T22:40:40.629Z,96.03
2022-12-18T22:43:49.820Z,95.85
2022-12-18T22:46:43.863Z,95.31
2022-12-18T22:49:10.983Z,96.68
2022-12-18T22:52:00.479Z,95.73
2022-12-18T22:54:54.864Z,96.41
2022-12-18T23:00:28.287Z,95.17
2022-12-18T23:03:13.931Z,95.25
2022-12-18T23:07:44.605Z,97.49
2022-12-18T23:09:29.577Z,97.44
2022-12-18T23:11:58.761Z,97.97
2022-12-18T23:15:28.640Z,97.34
2022-12-18T23:17:25.759Z,93.62
2022-12-18T23:20:19.345Z,93.68
2022-12-18T23:22:39.705Z,95.29
2022-12-18T23:25:16.153Z,96.89
2022-12-18T23:27:42.876Z,97.22
2022-12-18T23:30:12.942Z,98.48
2022-12-18T23:32:53.003Z,99.27
2022-12-18T23:35:31.518Z,99.42
2022-12-18T23:37:58.813Z,100.00
2022-12-18T23:40:26.550Z,98.43
2022-12-18T23:42:53.083Z,97.32
2022-12-18T23:45:42.324Z,98.94
2022-12-18T23:48:23.436Z,99.81
2022-12-18T23:50:50.138Z,98.96
2022-12-18T23:53:16.772Z,98.47
2022-12-18T23:55:44.590Z,98.93
2022-12-18T23:58:21.134Z,96.86
